Hyderabad Weather



Hyderabad's Current Weather

Temprature 20.03o broken clouds

broken clouds

Rain: 0 %

Min Temprature20.03o
Max Temprature20.03o
Humidity59
Wind Speed1.99 m/h
Sun Rise07:02:32
Sun Set17:37:33
Current Time: 12-Dec-2019 01:30:11
Lat/Lon: 25.38, 68.38




Hyderabad's Geo Location



Hyderabad's Weather Forecast

Time Overall Temp Min Temp Max Temp Humidity Wind Speed Rain
12-Dec-2019 (Thu)
02:00:00 broken clouds 20.030 20.030 20.030 59 1.99 m/h 0 %
05:00:00 scattered clouds 18.990 18.990 18.990 60 2.42 m/h 0 %
08:00:00 few clouds 20.080 20.080 20.080 58 3.14 m/h 0 %
11:00:00 scattered clouds 23.230 23.230 23.230 48 5.6 m/h 0 %
14:00:00 scattered clouds 24.530 24.530 24.530 39 5.43 m/h 0 %
17:00:00 broken clouds 22.340 22.340 22.340 43 5.11 m/h 0 %
20:00:00 scattered clouds 19.550 19.550 19.550 52 4.36 m/h 0 %
23:00:00 few clouds 17.890 17.890 17.890 61 3.95 m/h 0 %
13-Dec-2019 (Fri)
02:00:00 clear sky 16.340 16.340 16.340 68 3.37 m/h 0 %
05:00:00 clear sky 15.240 15.240 15.240 71 2.69 m/h 0 %
08:00:00 clear sky 15.640 15.640 15.640 69 2.07 m/h 0 %
11:00:00 clear sky 20.750 20.750 20.750 48 1.2 m/h 0 %
14:00:00 clear sky 24.230 24.230 24.230 34 1.58 m/h 0 %
17:00:00 clear sky 23.770 23.770 23.770 33 2.47 m/h 0 %
20:00:00 clear sky 20.380 20.380 20.380 39 2.22 m/h 0 %
23:00:00 few clouds 18.770 18.770 18.770 43 2.68 m/h 0 %
14-Dec-2019 (Sat)
02:00:00 broken clouds 18.560 18.560 18.560 44 2.64 m/h 0 %
05:00:00 overcast clouds 17.400 17.400 17.400 48 1.84 m/h 0 %
08:00:00 few clouds 18.360 18.360 18.360 47 2.48 m/h 0 %
11:00:00 clear sky 23.270 23.270 23.270 36 1.53 m/h 0 %
14:00:00 clear sky 25.570 25.570 25.570 28 1.67 m/h 0 %
17:00:00 clear sky 24.790 24.790 24.790 28 2.96 m/h 0 %
20:00:00 scattered clouds 21.730 21.730 21.730 33 4.13 m/h 0 %
23:00:00 scattered clouds 20.140 20.140 20.140 35 3.16 m/h 0 %
15-Dec-2019 (Sun)
02:00:00 scattered clouds 17.970 17.970 17.970 36 2.88 m/h 0 %
05:00:00 few clouds 16.640 16.640 16.640 34 3.15 m/h 0 %
08:00:00 clear sky 16.870 16.870 16.870 37 3.51 m/h 0 %
11:00:00 clear sky 22.800 22.800 22.800 27 4.38 m/h 0 %
14:00:00 clear sky 25.550 25.550 25.550 23 4.68 m/h 0 %
17:00:00 clear sky 23.970 23.970 23.970 26 4.36 m/h 0 %
20:00:00 clear sky 20.180 20.180 20.180 34 4.09 m/h 0 %
23:00:00 clear sky 18.960 18.960 18.960 37 3.8 m/h 0 %
16-Dec-2019 (Mon)
02:00:00 clear sky 17.500 17.500 17.500 38 3.12 m/h 0 %
05:00:00 clear sky 16.170 16.170 16.170 41 2.63 m/h 0 %
08:00:00 clear sky 16.370 16.370 16.370 42 2.73 m/h 0 %
11:00:00 clear sky 22.410 22.410 22.410 29 3.65 m/h 0 %
14:00:00 clear sky 24.900 24.900 24.900 25 4.92 m/h 0 %
17:00:00 clear sky 23.220 23.220 23.220 27 4.99 m/h 0 %
20:00:00 clear sky 19.490 19.490 19.490 35 4.38 m/h 0 %
23:00:00 clear sky 18.060 18.060 18.060 37 3.81 m/h 0 %


Hyderabad's Tourist Spots

Museums in Hyderabad

Famous Cities (61)